Wetterdaten: Woche 08.09.14 - 14.09.14 (KW37)
Datum Zeit Temp. Aussen +5cm Feuchte Auss Luftdruck Regen Sonnenschein Regendauer UV Solar Windben
08.09.2014 00:00 14,5 C 12,8 C 92 % 1016,1 hPa 0,0 l/m 0,00 h 0,00 h 0,0 UV-I 0 W/m 0,0 km/h (0 Bft)
08.09.2014 01:00 14,0 C 12,3 C 93 % 1016,0 hPa 0,0 l/m 0,00 h 0,00 h 0,0 UV-I 0 W/m 0,0 km/h (0 Bft)
08.09.2014 02:00 13,5 C 12,0 C 93 % 1016,1 hPa 0,0 l/m 0,00 h 0,00 h 0,0 UV-I 0 W/m 0,0 km/h (0 Bft)
08.09.2014 03:00 13,1 C 11,7 C 94 % 1016,2 hPa 0,0 l/m 0,00 h 0,00 h 0,0 UV-I 0 W/m 0,0 km/h (0 Bft)
08.09.2014 04:00 12,7 C 11,4 C 94 % 1016,1 hPa 0,0 l/m 0,00 h 0,00 h 0,0 UV-I 0 W/m 0,0 km/h (0 Bft)
08.09.2014 05:00 12,3 C 11,0 C 94 % 1016,1 hPa 0,0 l/m 0,00 h 0,00 h 0,0 UV-I 0 W/m 0,1 km/h (0 Bft)
08.09.2014 06:00 11,8 C 10,6 C 95 % 1016,3 hPa 0,0 l/m 0,00 h 0,00 h 0,0 UV-I 0 W/m 0,0 km/h (0 Bft)
08.09.2014 07:00 11,5 C 10,9 C 95 % 1016,7 hPa 0,0 l/m 0,00 h 0,00 h 0,0 UV-I 0 W/m 0,2 km/h (0 Bft)
08.09.2014 08:00 12,5 C 12,1 C 97 % 1017,2 hPa 0,0 l/m 0,00 h 0,00 h 0,0 UV-I 0 W/m 0,2 km/h (0 Bft)
08.09.2014 09:00 13,8 C 13,7 C 98 % 1017,5 hPa 0,0 l/m 0,00 h 0,00 h 0,0 UV-I 0 W/m 2,9 km/h (1 Bft)
08.09.2014 10:00 14,9 C 15,1 C 98 % 1017,8 hPa 0,0 l/m 0,00 h 0,00 h 0,0 UV-I 0 W/m 10,3 km/h (2 Bft)
08.09.2014 11:00 16,5 C 16,9 C 97 % 1018,2 hPa 0,0 l/m 0,00 h 0,00 h 0,0 UV-I 0 W/m 14,1 km/h (3 Bft)
08.09.2014 12:00 18,0 C 17,7 C 87 % 1018,3 hPa 0,0 l/m 0,00 h 0,00 h 0,0 UV-I 0 W/m 11,8 km/h (2 Bft)
08.09.2014 13:00 18,8 C 18,2 C 83 % 1018,3 hPa 0,0 l/m 0,00 h 0,00 h 0,0 UV-I 0 W/m 10,1 km/h (2 Bft)
08.09.2014 14:00 20,9 C 20,0 C 77 % 1018,0 hPa 0,0 l/m 0,00 h 0,00 h 0,0 UV-I 0 W/m 4,9 km/h (1 Bft)
08.09.2014 15:00 22,0 C 20,1 C 70 % 1017,9 hPa 0,0 l/m 0,00 h 0,00 h 0,0 UV-I 0 W/m 7,1 km/h (2 Bft)
08.09.2014 16:00 21,7 C 19,9 C 69 % 1017,9 hPa 0,0 l/m 0,00 h 0,00 h 0,0 UV-I 0 W/m 11,7 km/h (2 Bft)
08.09.2014 17:00 21,3 C 19,1 C 67 % 1017,9 hPa 0,0 l/m 0,00 h 0,00 h 0,0 UV-I 0 W/m 13,9 km/h (3 Bft)
08.09.2014 18:00 20,4 C 18,2 C 68 % 1018,0 hPa 0,0 l/m 0,00 h 0,00 h 0,0 UV-I 0 W/m 10,8 km/h (2 Bft)
08.09.2014 19:00 19,2 C 16,5 C 70 % 1018,0 hPa 0,0 l/m 0,00 h 0,00 h 0,0 UV-I 0 W/m 3,0 km/h (1 Bft)
08.09.2014 20:00 17,2 C 13,5 C 77 % 1018,3 hPa 0,0 l/m 0,00 h 0,00 h 0,0 UV-I 0 W/m 0,0 km/h (0 Bft)
08.09.2014 21:00 14,9 C 12,0 C 84 % 1018,6 hPa 0,0 l/m 0,00 h 0,00 h 0,0 UV-I 0 W/m 0,0 km/h (0 Bft)
08.09.2014 22:00 13,3 C 11,1 C 87 % 1019,0 hPa 0,0 l/m 0,00 h 0,00 h 0,0 UV-I 0 W/m 0,0 km/h (0 Bft)
08.09.2014 23:00 12,3 C 10,5 C 89 % 1019,3 hPa 0,0 l/m 0,00 h 0,00 h 0,0 UV-I 0 W/m 0,0 km/h (0 Bft)
09.09.2014 00:00 11,5 C 10,0 C 90 % 1019,4 hPa 0,0 l/m 0,00 h 0,00 h 0,0 UV-I 0 W/m 0,0 km/h (0 Bft)
09.09.2014 01:00 10,9 C 9,4 C 91 % 1019,6 hPa 0,0 l/m 0,00 h 0,00 h 0,0 UV-I 0 W/m 0,0 km/h (0 Bft)
09.09.2014 02:00 10,5 C 9,3 C 92 % 1019,7 hPa 0,0 l/m 0,00 h 0,00 h 0,0 UV-I 0 W/m 0,0 km/h (0 Bft)
09.09.2014 03:00 10,1 C 8,9 C 93 % 1019,7 hPa 0,0 l/m 0,00 h 0,00 h 0,0 UV-I 0 W/m 0,0 km/h (0 Bft)
09.09.2014 04:00 9,8 C 9,1 C 93 % 1019,6 hPa 0,0 l/m 0,00 h 0,00 h 0,0 UV-I 0 W/m 0,0 km/h (0 Bft)
09.09.2014 05:00 9,8 C 9,4 C 94 % 1019,5 hPa 0,0 l/m 0,00 h 0,00 h 0,0 UV-I 0 W/m 0,0 km/h (0 Bft)
09.09.2014 06:00 9,9 C 9,4 C 95 % 1019,4 hPa 0,0 l/m 0,00 h 0,00 h 0,0 UV-I 0 W/m 0,0 km/h (0 Bft)
09.09.2014 07:00 10,2 C 10,0 C 95 % 1019,7 hPa 0,0 l/m 0,00 h 0,00 h 0,0 UV-I 0 W/m 0,0 km/h (0 Bft)
09.09.2014 08:00 10,9 C 11,2 C 96 % 1020,1 hPa 0,0 l/m 0,00 h 0,00 h 0,0 UV-I 0 W/m 0,0 km/h (0 Bft)
09.09.2014 09:00 12,4 C 12,4 C 97 % 1020,2 hPa 0,0 l/m 0,00 h 0,00 h 0,0 UV-I 0 W/m 0,0 km/h (0 Bft)
09.09.2014 10:00 15,2 C 14,8 C 94 % 1020,5 hPa 0,0 l/m 0,00 h 0,00 h 0,0 UV-I 0 W/m 0,0 km/h (0 Bft)
09.09.2014 11:00 17,4 C 16,5 C 79 % 1020,6 hPa 0,0 l/m 0,00 h 0,00 h 0,0 UV-I 0 W/m 6,3 km/h (2 Bft)
09.09.2014 12:00 17,3 C 16,7 C 76 % 1020,5 hPa 0,0 l/m 0,00 h 0,00 h 0,0 UV-I 0 W/m 3,0 km/h (1 Bft)
09.09.2014 13:00 18,1 C 17,9 C 73 % 1020,4 hPa 0,0 l/m 0,00 h 0,00 h 0,0 UV-I 0 W/m 13,0 km/h (3 Bft)
09.09.2014 14:00 18,4 C 17,5 C 70 % 1020,3 hPa 0,0 l/m 0,00 h 0,00 h 0,0 UV-I 0 W/m 9,6 km/h (2 Bft)
09.09.2014 15:00 18,0 C 17,5 C 73 % 1020,2 hPa 0,0 l/m 0,00 h 0,00 h 0,0 UV-I 0 W/m 5,4 km/h (1 Bft)
09.09.2014 16:00 18,6 C 17,5 C 70 % 1020,0 hPa 0,0 l/m 0,00 h 0,00 h 0,0 UV-I 0 W/m 9,6 km/h (2 Bft)
09.09.2014 17:00 17,9 C 16,9 C 76 % 1019,9 hPa 0,0 l/m 0,00 h 0,00 h 0,0 UV-I 0 W/m 12,0 km/h (2 Bft)
09.09.2014 18:00 17,2 C 15,9 C 81 % 1019,8 hPa 0,0 l/m 0,00 h 0,00 h 0,0 UV-I 0 W/m 8,5 km/h (2 Bft)
09.09.2014 19:00 16,7 C 15,2 C 82 % 1019,6 hPa 0,0 l/m 0,00 h 0,00 h 0,0 UV-I 0 W/m 0,8 km/h (0 Bft)
09.09.2014 20:00 16,2 C 14,6 C 85 % 1019,7 hPa 0,0 l/m 0,00 h 0,00 h 0,0 UV-I 0 W/m 0,6 km/h (0 Bft)
09.09.2014 21:00 15,8 C 14,4 C 86 % 1019,9 hPa 0,0 l/m 0,00 h 0,00 h 0,0 UV-I 0 W/m 0,1 km/h (0 Bft)
09.09.2014 22:00 15,4 C 13,9 C 87 % 1020,0 hPa 0,0 l/m 0,00 h 0,00 h 0,0 UV-I 0 W/m 3,3 km/h (1 Bft)
09.09.2014 23:00 15,0 C 13,9 C 85 % 1020,2 hPa 0,0 l/m 0,00 h 0,00 h 0,0 UV-I 0 W/m 4,8 km/h (1 Bft)
10.09.2014 00:00 14,6 C 13,2 C 85 % 1020,4 hPa 0,0 l/m 0,00 h 0,00 h 0,0 UV-I 0 W/m 1,3 km/h (1 Bft)
10.09.2014 01:00 14,1 C 12,7 C 87 % 1020,4 hPa 0,0 l/m 0,00 h 0,00 h 0,0 UV-I 0 W/m 0,8 km/h (0 Bft)
10.09.2014 02:00 13,6 C 12,2 C 89 % 1020,2 hPa 0,0 l/m 0,00 h 0,00 h 0,0 UV-I 0 W/m 0,0 km/h (0 Bft)
10.09.2014 03:00 13,3 C 12,2 C 90 % 1019,9 hPa 0,0 l/m 0,00 h 0,00 h 0,0 UV-I 0 W/m 0,0 km/h (0 Bft)
10.09.2014 04:00 13,1 C 12,2 C 92 % 1019,9 hPa 0,0 l/m 0,00 h 0,00 h 0,0 UV-I 0 W/m 0,2 km/h (0 Bft)
10.09.2014 05:00 13,1 C 12,2 C 93 % 1019,9 hPa 0,0 l/m 0,00 h 0,00 h 0,0 UV-I 0 W/m 0,5 km/h (0 Bft)
10.09.2014 06:00 13,0 C 12,2 C 93 % 1019,8 hPa 0,0 l/m 0,00 h 0,00 h 0,0 UV-I 0 W/m 0,2 km/h (0 Bft)
10.09.2014 07:00 12,9 C 12,2 C 94 % 1020,1 hPa 0,0 l/m 0,00 h 0,00 h 0,0 UV-I 0 W/m 0,0 km/h (0 Bft)
10.09.2014 08:00 13,1 C 12,7 C 94 % 1020,2 hPa 0,0 l/m 0,00 h 0,00 h 0,0 UV-I 0 W/m 1,1 km/h (0 Bft)
10.09.2014 09:00 13,8 C 13,7 C 92 % 1020,2 hPa 0,0 l/m 0,00 h 0,00 h 0,0 UV-I 0 W/m 8,1 km/h (2 Bft)
10.09.2014 10:00 15,0 C 15,1 C 85 % 1020,3 hPa 0,0 l/m 0,00 h 0,00 h 0,0 UV-I 0 W/m 4,9 km/h (1 Bft)
10.09.2014 11:00 16,3 C 16,4 C 75 % 1020,4 hPa 0,0 l/m 0,00 h 0,00 h 0,0 UV-I 0 W/m 12,6 km/h (3 Bft)
10.09.2014 12:00 17,3 C 17,1 C 68 % 1020,0 hPa 0,0 l/m 0,00 h 0,00 h 0,0 UV-I 0 W/m 14,1 km/h (3 Bft)
10.09.2014 13:00 17,4 C 17,4 C 68 % 1019,8 hPa 0,0 l/m 0,00 h 0,00 h 0,0 UV-I 0 W/m 17,1 km/h (3 Bft)
10.09.2014 14:00 17,7 C 17,3 C 67 % 1019,7 hPa 0,0 l/m 0,00 h 0,00 h 0,0 UV-I 0 W/m 14,6 km/h (3 Bft)
10.09.2014 15:00 17,9 C 17,3 C 68 % 1019,6 hPa 0,0 l/m 0,00 h 0,00 h 0,0 UV-I 0 W/m 15,3 km/h (3 Bft)
10.09.2014 16:00 17,5 C 16,9 C 71 % 1019,3 hPa 0,0 l/m 0,00 h 0,00 h 0,0 UV-I 0 W/m 11,9 km/h (2 Bft)
10.09.2014 17:00 16,9 C 15,6 C 75 % 1019,1 hPa 0,0 l/m 0,00 h 0,00 h 0,0 UV-I 0 W/m 17,1 km/h (3 Bft)
10.09.2014 18:00 16,3 C 15,4 C 79 % 1018,9 hPa 0,0 l/m 0,00 h 0,00 h 0,0 UV-I 0 W/m 9,1 km/h (2 Bft)
10.09.2014 19:00 16,3 C 15,1 C 79 % 1018,7 hPa 0,0 l/m 0,00 h 0,00 h 0,0 UV-I 0 W/m 7,2 km/h (2 Bft)
10.09.2014 20:00 15,9 C 14,4 C 81 % 1018,9 hPa 0,0 l/m 0,00 h 0,00 h 0,0 UV-I 0 W/m 8,0 km/h (2 Bft)
10.09.2014 21:00 15,3 C 13,9 C 83 % 1019,2 hPa 0,0 l/m 0,00 h 0,00 h 0,0 UV-I 0 W/m 3,2 km/h (1 Bft)
10.09.2014 22:00 14,8 C 13,4 C 85 % 1019,0 hPa 0,0 l/m 0,00 h 0,00 h 0,0 UV-I 0 W/m 3,5 km/h (1 Bft)
10.09.2014 23:00 13,9 C 11,4 C 86 % 1018,9 hPa 0,0 l/m 0,00 h 0,00 h 0,0 UV-I 0 W/m 0,0 km/h (0 Bft)
11.09.2014 00:00 12,9 C 11,8 C 88 % 1019,0 hPa 0,0 l/m 0,00 h 0,00 h 0,0 UV-I 0 W/m 0,0 km/h (0 Bft)
11.09.2014 01:00 13,2 C 12,7 C 92 % 1018,9 hPa 0,0 l/m 0,00 h 0,00 h 0,0 UV-I 0 W/m 0,2 km/h (0 Bft)
11.09.2014 02:00 13,6 C 12,8 C 93 % 1018,6 hPa 0,0 l/m 0,00 h 0,00 h 0,0 UV-I 0 W/m 4,1 km/h (1 Bft)
11.09.2014 03:00 13,9 C 12,8 C 93 % 1018,4 hPa 0,0 l/m 0,00 h 0,00 h 0,0 UV-I 0 W/m 6,8 km/h (2 Bft)
11.09.2014 04:00 14,0 C 12,8 C 93 % 1018,0 hPa 0,0 l/m 0,00 h 0,00 h 0,0 UV-I 0 W/m 6,0 km/h (2 Bft)
11.09.2014 05:00 13,8 C 12,8 C 93 % 1017,7 hPa 0,0 l/m 0,00 h 0,00 h 0,0 UV-I 0 W/m 6,9 km/h (2 Bft)
11.09.2014 06:00 13,7 C 12,8 C 94 % 1017,4 hPa 0,0 l/m 0,00 h 0,00 h 0,0 UV-I 0 W/m 7,9 km/h (2 Bft)
11.09.2014 07:00 13,7 C 12,8 C 95 % 1017,5 hPa 0,0 l/m 0,00 h 0,00 h 0,0 UV-I 0 W/m 11,1 km/h (2 Bft)
11.09.2014 08:00 13,9 C 13,0 C 95 % 1017,7 hPa 0,0 l/m 0,00 h 0,03 h 0,0 UV-I 0 W/m 11,8 km/h (2 Bft)
11.09.2014 09:00 14,1 C 13,4 C 96 % 1018,1 hPa 0,0 l/m 0,00 h 0,00 h 0,0 UV-I 0 W/m 11,4 km/h (2 Bft)
11.09.2014 10:00 15,0 C 15,3 C 95 % 1018,3 hPa 0,0 l/m 0,00 h 0,00 h 0,0 UV-I 0 W/m 11,6 km/h (2 Bft)
11.09.2014 11:00 16,6 C 16,0 C 86 % 1018,3 hPa 0,0 l/m 0,00 h 0,00 h 0,0 UV-I 0 W/m 17,9 km/h (3 Bft)
11.09.2014 12:00 18,3 C 17,5 C 76 % 1018,2 hPa 0,0 l/m 0,00 h 0,00 h 0,0 UV-I 0 W/m 24,0 km/h (4 Bft)
11.09.2014 13:00 18,9 C 18,2 C 70 % 1018,1 hPa 0,0 l/m 0,00 h 0,00 h 0,0 UV-I 0 W/m 23,2 km/h (4 Bft)
11.09.2014 14:00 20,1 C 18,9 C 64 % 1018,0 hPa 0,0 l/m 0,00 h 0,00 h 0,0 UV-I 0 W/m 24,2 km/h (4 Bft)
11.09.2014 15:00 19,6 C 18,4 C 63 % 1018,1 hPa 0,0 l/m 0,00 h 0,00 h 0,0 UV-I 0 W/m 22,6 km/h (4 Bft)
11.09.2014 16:00 19,4 C 18,3 C 64 % 1018,1 hPa 0,0 l/m 0,00 h 0,00 h 0,0 UV-I 0 W/m 20,2 km/h (4 Bft)
11.09.2014 17:00 19,9 C 18,3 C 61 % 1018,2 hPa 0,0 l/m 0,00 h 0,00 h 0,0 UV-I 0 W/m 18,2 km/h (3 Bft)
11.09.2014 18:00 18,8 C 17,1 C 65 % 1018,5 hPa 0,0 l/m 0,00 h 0,00 h 0,0 UV-I 0 W/m 15,4 km/h (3 Bft)
11.09.2014 19:00 17,4 C 15,4 C 69 % 1018,7 hPa 0,0 l/m 0,00 h 0,00 h 0,0 UV-I 0 W/m 11,9 km/h (2 Bft)
11.09.2014 20:00 15,8 C 13,6 C 76 % 1019,3 hPa 0,0 l/m 0,00 h 0,00 h 0,0 UV-I 0 W/m 5,9 km/h (2 Bft)
11.09.2014 21:00 14,7 C 12,7 C 81 % 1019,9 hPa 0,0 l/m 0,00 h 0,00 h 0,0 UV-I 0 W/m 4,8 km/h (1 Bft)
11.09.2014 22:00 13,5 C 11,0 C 84 % 1020,4 hPa 0,0 l/m 0,00 h 0,00 h 0,0 UV-I 0 W/m 0,1 km/h (0 Bft)
11.09.2014 23:00 12,3 C 9,8 C 86 % 1020,8 hPa 0,0 l/m 0,00 h 0,00 h 0,0 UV-I 0 W/m 0,0 km/h (0 Bft)
12.09.2014 00:00 11,2 C 9,1 C 88 % 1021,0 hPa 0,0 l/m 0,00 h 0,00 h 0,0 UV-I 0 W/m 0,0 km/h (0 Bft)
12.09.2014 01:00 10,4 C 8,7 C 90 % 1021,4 hPa 0,0 l/m 0,00 h 0,00 h 0,0 UV-I 0 W/m 0,0 km/h (0 Bft)
12.09.2014 02:00 9,8 C 8,3 C 91 % 1021,3 hPa 0,0 l/m 0,00 h 0,00 h 0,0 UV-I 0 W/m 0,0 km/h (0 Bft)
12.09.2014 03:00 9,4 C 8,0 C 92 % 1021,4 hPa 0,0 l/m 0,00 h 0,00 h 0,0 UV-I 0 W/m 0,0 km/h (0 Bft)
12.09.2014 04:00 8,9 C 7,5 C 93 % 1021,3 hPa 0,0 l/m 0,00 h 0,00 h 0,0 UV-I 0 W/m 0,0 km/h (0 Bft)
12.09.2014 05:00 8,7 C 7,3 C 94 % 1021,3 hPa 0,0 l/m 0,00 h 0,00 h 0,0 UV-I 0 W/m 0,0 km/h (0 Bft)
12.09.2014 06:00 8,4 C 7,2 C 94 % 1021,3 hPa 0,0 l/m 0,00 h 0,00 h 0,0 UV-I 0 W/m 0,1 km/h (0 Bft)
12.09.2014 07:00 8,2 C 7,3 C 94 % 1021,4 hPa 0,0 l/m 0,00 h 0,00 h 0,0 UV-I 0 W/m 0,0 km/h (0 Bft)
12.09.2014 08:00 8,6 C 8,4 C 95 % 1021,6 hPa 0,0 l/m 0,00 h 0,00 h 0,0 UV-I 0 W/m 0,0 km/h (0 Bft)
12.09.2014 09:00 11,1 C 11,5 C 97 % 1021,8 hPa 0,0 l/m 0,00 h 0,00 h 0,0 UV-I 0 W/m 6,6 km/h (2 Bft)
12.09.2014 10:00 14,2 C 14,3 C 97 % 1021,8 hPa 0,0 l/m 0,00 h 0,00 h 0,0 UV-I 0 W/m 16,2 km/h (3 Bft)
12.09.2014 11:00 17,2 C 16,5 C 84 % 1021,6 hPa 0,0 l/m 0,00 h 0,00 h 0,0 UV-I 0 W/m 19,5 km/h (3 Bft)
12.09.2014 12:00 19,4 C 18,1 C 73 % 1021,3 hPa 0,0 l/m 0,00 h 0,00 h 0,0 UV-I 0 W/m 23,7 km/h (4 Bft)
12.09.2014 13:00 20,1 C 18,6 C 70 % 1021,2 hPa 0,0 l/m 0,00 h 0,00 h 0,0 UV-I 0 W/m 25,6 km/h (4 Bft)
12.09.2014 14:00 20,4 C 19,1 C 67 % 1020,9 hPa 0,0 l/m 0,00 h 0,00 h 0,0 UV-I 0 W/m 26,8 km/h (4 Bft)
12.09.2014 15:00 20,3 C 19,0 C 69 % 1020,8 hPa 0,0 l/m 0,00 h 0,00 h 0,0 UV-I 0 W/m 26,8 km/h (4 Bft)
12.09.2014 16:00 20,0 C 18,9 C 69 % 1020,7 hPa 0,0 l/m 0,00 h 0,00 h 0,0 UV-I 0 W/m 23,5 km/h (4 Bft)
12.09.2014 17:00 19,9 C 18,6 C 69 % 1020,7 hPa 0,0 l/m 0,00 h 0,00 h 0,0 UV-I 0 W/m 25,8 km/h (4 Bft)
12.09.2014 18:00 19,4 C 18,0 C 70 % 1021,1 hPa 0,0 l/m 0,00 h 0,00 h 0,0 UV-I 0 W/m 23,2 km/h (4 Bft)
12.09.2014 19:00 18,5 C 16,3 C 73 % 1021,2 hPa 0,0 l/m 0,00 h 0,00 h 0,0 UV-I 0 W/m 5,8 km/h (2 Bft)
12.09.2014 20:00 17,2 C 13,6 C 78 % 1021,5 hPa 0,0 l/m 0,00 h 0,00 h 0,0 UV-I 0 W/m 0,0 km/h (0 Bft)
12.09.2014 21:00 15,6 C 12,6 C 83 % 1021,8 hPa 0,0 l/m 0,00 h 0,00 h 0,0 UV-I 0 W/m 0,8 km/h (0 Bft)
12.09.2014 22:00 14,8 C 12,7 C 87 % 1021,8 hPa 0,0 l/m 0,00 h 0,00 h 0,0 UV-I 0 W/m 2,5 km/h (1 Bft)
12.09.2014 23:00 14,5 C 12,2 C 88 % 1021,9 hPa 0,0 l/m 0,00 h 0,00 h 0,0 UV-I 0 W/m 1,5 km/h (1 Bft)
13.09.2014 00:00 13,9 C 11,6 C 89 % 1022,2 hPa 0,0 l/m 0,00 h 0,00 h 0,0 UV-I 0 W/m 0,6 km/h (0 Bft)
13.09.2014 01:00 13,6 C 11,9 C 92 % 1022,5 hPa 0,0 l/m 0,00 h 0,00 h 0,0 UV-I 0 W/m 8,1 km/h (2 Bft)
13.09.2014 02:00 13,7 C 12,2 C 95 % 1022,5 hPa 0,0 l/m 0,00 h 0,00 h 0,0 UV-I 0 W/m 10,9 km/h (2 Bft)
13.09.2014 03:00 13,5 C 11,9 C 95 % 1022,6 hPa 0,0 l/m 0,00 h 0,00 h 0,0 UV-I 0 W/m 6,6 km/h (2 Bft)
13.09.2014 04:00 12,7 C 10,7 C 95 % 1022,6 hPa 0,0 l/m 0,00 h 0,00 h 0,0 UV-I 0 W/m 0,7 km/h (0 Bft)
13.09.2014 05:00 12,1 C 10,3 C 95 % 1022,6 hPa 0,0 l/m 0,00 h 0,00 h 0,0 UV-I 0 W/m 1,3 km/h (1 Bft)
13.09.2014 06:00 12,1 C 11,1 C 96 % 1022,7 hPa 0,0 l/m 0,00 h 0,00 h 0,0 UV-I 0 W/m 8,3 km/h (2 Bft)
13.09.2014 07:00 12,9 C 12,1 C 97 % 1023,2 hPa 0,0 l/m 0,00 h 0,00 h 0,0 UV-I 0 W/m 17,3 km/h (3 Bft)
13.09.2014 08:00 13,0 C 12,2 C 97 % 1023,6 hPa 0,0 l/m 0,00 h 0,00 h 0,0 UV-I 0 W/m 16,2 km/h (3 Bft)
13.09.2014 09:00 13,2 C 12,7 C 98 % 1024,1 hPa 0,0 l/m 0,00 h 0,00 h 0,0 UV-I 0 W/m 17,1 km/h (3 Bft)
13.09.2014 10:00 14,2 C 14,3 C 95 % 1024,2 hPa 0,0 l/m 0,00 h 0,00 h 0,0 UV-I 0 W/m 10,3 km/h (2 Bft)
13.09.2014 11:00 16,4 C 16,6 C 87 % 1024,3 hPa 0,0 l/m 0,00 h 0,00 h 0,0 UV-I 0 W/m 11,6 km/h (2 Bft)
13.09.2014 12:00 18,2 C 18,1 C 81 % 1024,1 hPa 0,0 l/m 0,00 h 0,00 h 0,0 UV-I 0 W/m 18,2 km/h (3 Bft)
13.09.2014 13:00 18,8 C 18,7 C 78 % 1023,9 hPa 0,0 l/m 0,00 h 0,00 h 0,0 UV-I 0 W/m 21,7 km/h (4 Bft)
13.09.2014 14:00 19,5 C 19,2 C 73 % 1023,8 hPa 0,0 l/m 0,00 h 0,00 h 0,0 UV-I 0 W/m 22,6 km/h (4 Bft)
13.09.2014 15:00 20,2 C 20,0 C 70 % 1023,6 hPa 0,0 l/m 0,00 h 0,00 h 0,0 UV-I 0 W/m 20,1 km/h (4 Bft)
13.09.2014 16:00 20,7 C 19,3 C 67 % 1023,4 hPa 0,0 l/m 0,00 h 0,00 h 0,0 UV-I 0 W/m 18,9 km/h (3 Bft)
13.09.2014 17:00 20,5 C 19,0 C 68 % 1023,2 hPa 0,0 l/m 0,00 h 0,00 h 0,0 UV-I 0 W/m 17,7 km/h (3 Bft)
13.09.2014 18:00 20,1 C 18,3 C 68 % 1023,2 hPa 0,0 l/m 0,00 h 0,00 h 0,0 UV-I 0 W/m 12,8 km/h (3 Bft)
13.09.2014 19:00 19,3 C 16,7 C 73 % 1023,2 hPa 0,0 l/m 0,00 h 0,00 h 0,0 UV-I 0 W/m 3,0 km/h (1 Bft)
13.09.2014 20:00 17,4 C 14,0 C 79 % 1023,4 hPa 0,0 l/m 0,00 h 0,00 h 0,0 UV-I 0 W/m 0,0 km/h (0 Bft)
13.09.2014 21:00 15,5 C 12,4 C 83 % 1023,5 hPa 0,0 l/m 0,00 h 0,00 h 0,0 UV-I 0 W/m 0,0 km/h (0 Bft)
13.09.2014 22:00 14,3 C 12,1 C 87 % 1023,5 hPa 0,0 l/m 0,00 h 0,00 h 0,0 UV-I 0 W/m 0,0 km/h (0 Bft)
13.09.2014 23:00 13,5 C 11,3 C 89 % 1023,4 hPa 0,0 l/m 0,00 h 0,00 h 0,0 UV-I 0 W/m 0,0 km/h (0 Bft)
14.09.2014 00:00 12,7 C 10,6 C 90 % 1023,4 hPa 0,0 l/m 0,00 h 0,00 h 0,0 UV-I 0 W/m 0,0 km/h (0 Bft)
14.09.2014 01:00 12,1 C 10,3 C 91 % 1023,2 hPa 0,0 l/m 0,00 h 0,00 h 0,0 UV-I 0 W/m 0,0 km/h (0 Bft)
14.09.2014 02:00 11,7 C 10,3 C 92 % 1022,8 hPa 0,0 l/m 0,00 h 0,00 h 0,0 UV-I 0 W/m 0,0 km/h (0 Bft)
14.09.2014 03:00 11,5 C 10,0 C 93 % 1022,4 hPa 0,0 l/m 0,00 h 0,00 h 0,0 UV-I 0 W/m 0,0 km/h (0 Bft)
14.09.2014 04:00 11,3 C 10,0 C 94 % 1022,1 hPa 0,0 l/m 0,00 h 0,00 h 0,0 UV-I 0 W/m 0,0 km/h (0 Bft)
14.09.2014 05:00 11,3 C 10,0 C 94 % 1021,9 hPa 0,0 l/m 0,00 h 0,00 h 0,0 UV-I 0 W/m 0,3 km/h (0 Bft)
14.09.2014 06:00 11,7 C 10,6 C 96 % 1021,7 hPa 0,0 l/m 0,00 h 0,00 h 0,0 UV-I 0 W/m 0,7 km/h (0 Bft)
14.09.2014 07:00 12,0 C 11,2 C 96 % 1021,8 hPa 0,0 l/m 0,00 h 0,00 h 0,0 UV-I 0 W/m 1,8 km/h (1 Bft)
14.09.2014 08:00 12,9 C 12,2 C 97 % 1021,9 hPa 0,0 l/m 0,00 h 0,00 h 0,0 UV-I 0 W/m 7,6 km/h (2 Bft)
14.09.2014 09:00 13,7 C 13,1 C 98 % 1021,9 hPa 0,0 l/m 0,00 h 0,00 h 0,0 UV-I 0 W/m 8,3 km/h (2 Bft)
14.09.2014 10:00 14,4 C 14,5 C 98 % 1021,8 hPa 0,0 l/m 0,00 h 0,00 h 0,0 UV-I 0 W/m 10,5 km/h (2 Bft)
14.09.2014 11:00 16,2 C 17,1 C 98 % 1021,6 hPa 0,0 l/m 0,00 h 0,00 h 0,0 UV-I 0 W/m 10,3 km/h (2 Bft)
14.09.2014 12:00 17,9 C 17,5 C 85 % 1021,0 hPa 0,0 l/m 0,00 h 0,00 h 0,0 UV-I 0 W/m 14,2 km/h (3 Bft)
14.09.2014 13:00 20,3 C 19,5 C 74 % 1020,4 hPa 0,0 l/m 0,00 h 0,00 h 0,0 UV-I 0 W/m 13,6 km/h (3 Bft)
14.09.2014 14:00 20,6 C 19,3 C 72 % 1019,9 hPa 0,0 l/m 0,00 h 0,00 h 0,0 UV-I 0 W/m 15,3 km/h (3 Bft)
14.09.2014 15:00 21,0 C 19,9 C 71 % 1019,5 hPa 0,0 l/m 0,00 h 0,00 h 0,0 UV-I 0 W/m 16,4 km/h (3 Bft)
14.09.2014 16:00 21,0 C 19,4 C 70 % 1018,9 hPa 0,0 l/m 0,00 h 0,00 h 0,0 UV-I 0 W/m 14,8 km/h (3 Bft)
14.09.2014 17:00 21,1 C 18,9 C 71 % 1018,5 hPa 0,0 l/m 0,00 h 0,00 h 0,0 UV-I 0 W/m 11,6 km/h (2 Bft)
14.09.2014 18:00 20,6 C 18,5 C 72 % 1018,3 hPa 0,0 l/m 0,00 h 0,00 h 0,0 UV-I 0 W/m 13,0 km/h (3 Bft)
14.09.2014 19:00 19,3 C 17,0 C 76 % 1018,1 hPa 0,0 l/m 0,00 h 0,00 h 0,0 UV-I 0 W/m 7,4 km/h (2 Bft)
14.09.2014 20:00 17,7 C 14,8 C 80 % 1018,2 hPa 0,0 l/m 0,00 h 0,00 h 0,0 UV-I 0 W/m 1,0 km/h (0 Bft)
14.09.2014 21:00 16,1 C 13,1 C 84 % 1018,2 hPa 0,0 l/m 0,00 h 0,00 h 0,0 UV-I 0 W/m 0,1 km/h (0 Bft)
14.09.2014 22:00 14,7 C 12,1 C 86 % 1018,0 hPa 0,0 l/m 0,00 h 0,00 h 0,0 UV-I 0 W/m 0,0 km/h (0 Bft)
14.09.2014 23:00 13,7 C 11,7 C 89 % 1017,9 hPa 0,0 l/m 0,00 h 0,00 h 0,0 UV-I 0 W/m 0,0 km/h (0 Bft)
Min-Datum _ 12.09.14 12.09.14 11.09.14 08.09.14 - - - - - 08.09.14
_ Min-Zeit 07:38 04:08 17:18 00:52 - - - - - 00:00
Minimum _ 8,1 C 7,2 C 58 % 1015,9 hPa - - - - - 0,0 km/h (0 Bft)
Max-Datum _ 08.09.14 13.09.14 14.09.14 13.09.14 08.09.14 08.09.14 11.09.14 08.09.14 08.09.14 11.09.14
_ Max-Zeit 15:08 15:10 11:04 10:52 00:00 00:00 08:10 00:00 00:00 15:30
Maximum _ 22,2 C 22,8 C 99 % 1024,4 hPa 0,0 l/m 0,00 h 0,03 h 0,0 UV-I 0 W/m 37,7 km/h
N (5 Bft)
Durchschnitt _ 15,3 C 14,0 C 84 % 1020,1 hPa #0,0 l/m #0 min. #2 min. 0,0 UV-I 0 W/m 7,2 km/h (2 Bft)
© 2014 W. Hausmann